sensor_id;sensor_type;location;lat;lon;timestamp;P1;durP1;ratioP1;P2;durP2;ratioP2
10416;SDS011;62605;49.432;8.680;2022-12-07T00:00:55;5.17;;;3.50;;
10416;SDS011;62605;49.432;8.680;2022-12-07T00:03:32;4.50;;;2.67;;
10416;SDS011;62605;49.432;8.680;2022-12-07T00:06:00;4.23;;;3.00;;
10416;SDS011;62605;49.432;8.680;2022-12-07T00:08:28;6.17;;;2.83;;
10416;SDS011;62605;49.432;8.680;2022-12-07T00:11:00;8.90;;;3.90;;
10416;SDS011;62605;49.432;8.680;2022-12-07T00:13:27;4.23;;;3.10;;
10416;SDS011;62605;49.432;8.680;2022-12-07T00:15:54;4.30;;;2.77;;
10416;SDS011;62605;49.432;8.680;2022-12-07T00:18:22;5.30;;;2.87;;
10416;SDS011;62605;49.432;8.680;2022-12-07T00:20:52;3.47;;;2.70;;
10416;SDS011;62605;49.432;8.680;2022-12-07T00:23:20;5.30;;;2.53;;
10416;SDS011;62605;49.432;8.680;2022-12-07T00:25:47;8.53;;;3.23;;
10416;SDS011;62605;49.432;8.680;2022-12-07T00:28:15;4.77;;;3.03;;
10416;SDS011;62605;49.432;8.680;2022-12-07T00:30:42;3.87;;;2.83;;
10416;SDS011;62605;49.432;8.680;2022-12-07T00:33:10;3.83;;;2.57;;
10416;SDS011;62605;49.432;8.680;2022-12-07T00:35:37;5.00;;;3.10;;
10416;SDS011;62605;49.432;8.680;2022-12-07T00:38:07;11.20;;;3.80;;
10416;SDS011;62605;49.432;8.680;2022-12-07T00:40:34;6.07;;;3.30;;
10416;SDS011;62605;49.432;8.680;2022-12-07T00:43:01;4.10;;;3.37;;
10416;SDS011;62605;49.432;8.680;2022-12-07T00:45:28;4.97;;;3.53;;
10416;SDS011;62605;49.432;8.680;2022-12-07T00:47:59;4.67;;;2.97;;
10416;SDS011;62605;49.432;8.680;2022-12-07T00:50:26;7.57;;;3.47;;
10416;SDS011;62605;49.432;8.680;2022-12-07T00:52:53;4.90;;;2.57;;
10416;SDS011;62605;49.432;8.680;2022-12-07T00:55:22;6.60;;;2.97;;
10416;SDS011;62605;49.432;8.680;2022-12-07T00:57:51;3.90;;;2.60;;
10416;SDS011;62605;49.432;8.680;2022-12-07T01:00:18;5.87;;;3.07;;
10416;SDS011;62605;49.432;8.680;2022-12-07T01:02:45;5.97;;;3.40;;
10416;SDS011;62605;49.432;8.680;2022-12-07T01:05:12;5.23;;;3.20;;
10416;SDS011;62605;49.432;8.680;2022-12-07T01:07:39;5.00;;;2.97;;
10416;SDS011;62605;49.432;8.680;2022-12-07T01:10:07;6.03;;;3.03;;
10416;SDS011;62605;49.432;8.680;2022-12-07T01:12:36;6.90;;;3.17;;
10416;SDS011;62605;49.432;8.680;2022-12-07T01:15:05;5.13;;;2.67;;
10416;SDS011;62605;49.432;8.680;2022-12-07T01:17:33;5.33;;;3.43;;
10416;SDS011;62605;49.432;8.680;2022-12-07T01:20:01;5.80;;;3.20;;
10416;SDS011;62605;49.432;8.680;2022-12-07T01:22:29;5.33;;;3.40;;
10416;SDS011;62605;49.432;8.680;2022-12-07T01:24:57;7.03;;;3.20;;
10416;SDS011;62605;49.432;8.680;2022-12-07T01:27:24;7.20;;;3.07;;
10416;SDS011;62605;49.432;8.680;2022-12-07T01:29:52;6.57;;;3.97;;
10416;SDS011;62605;49.432;8.680;2022-12-07T01:32:23;6.50;;;3.17;;
10416;SDS011;62605;49.432;8.680;2022-12-07T01:34:51;6.03;;;3.67;;
10416;SDS011;62605;49.432;8.680;2022-12-07T01:37:19;6.13;;;3.27;;
10416;SDS011;62605;49.432;8.680;2022-12-07T01:39:48;6.30;;;3.40;;
10416;SDS011;62605;49.432;8.680;2022-12-07T01:42:15;6.23;;;3.83;;
10416;SDS011;62605;49.432;8.680;2022-12-07T01:48:03;5.60;;;3.07;;
10416;SDS011;62605;49.432;8.680;2022-12-07T01:50:35;4.40;;;2.97;;
10416;SDS011;62605;49.432;8.680;2022-12-07T01:53:05;7.03;;;3.43;;
10416;SDS011;62605;49.432;8.680;2022-12-07T01:55:36;5.10;;;3.13;;
10416;SDS011;62605;49.432;8.680;2022-12-07T01:58:08;4.03;;;2.80;;
10416;SDS011;62605;49.432;8.680;2022-12-07T02:00:38;5.53;;;3.03;;
10416;SDS011;62605;49.432;8.680;2022-12-07T02:03:08;3.97;;;2.60;;
10416;SDS011;62605;49.432;8.680;2022-12-07T02:05:40;6.00;;;3.27;;
10416;SDS011;62605;49.432;8.680;2022-12-07T02:08:10;3.20;;;2.73;;
10416;SDS011;62605;49.432;8.680;2022-12-07T02:10:38;3.63;;;2.87;;
10416;SDS011;62605;49.432;8.680;2022-12-07T02:13:06;7.53;;;3.40;;
10416;SDS011;62605;49.432;8.680;2022-12-07T02:15:41;4.50;;;2.93;;
10416;SDS011;62605;49.432;8.680;2022-12-07T02:18:21;5.03;;;3.70;;
10416;SDS011;62605;49.432;8.680;2022-12-07T02:20:59;9.17;;;2.93;;
10416;SDS011;62605;49.432;8.680;2022-12-07T02:23:55;5.77;;;3.33;;
10416;SDS011;62605;49.432;8.680;2022-12-07T02:29:42;6.37;;;2.90;;
10416;SDS011;62605;49.432;8.680;2022-12-07T02:32:15;5.27;;;3.13;;
10416;SDS011;62605;49.432;8.680;2022-12-07T02:34:47;8.10;;;3.50;;
10416;SDS011;62605;49.432;8.680;2022-12-07T02:37:21;6.47;;;3.80;;
10416;SDS011;62605;49.432;8.680;2022-12-07T02:40:01;8.33;;;3.53;;
10416;SDS011;62605;49.432;8.680;2022-12-07T02:42:36;10.27;;;2.83;;
10416;SDS011;62605;49.432;8.680;2022-12-07T02:45:11;6.10;;;3.07;;
10416;SDS011;62605;49.432;8.680;2022-12-07T02:47:42;4.10;;;3.10;;
10416;SDS011;62605;49.432;8.680;2022-12-07T02:50:12;6.67;;;3.13;;
10416;SDS011;62605;49.432;8.680;2022-12-07T02:52:40;7.53;;;3.43;;
10416;SDS011;62605;49.432;8.680;2022-12-07T02:55:08;6.17;;;3.17;;
10416;SDS011;62605;49.432;8.680;2022-12-07T02:57:40;5.60;;;3.10;;
10416;SDS011;62605;49.432;8.680;2022-12-07T03:00:19;4.40;;;3.10;;
10416;SDS011;62605;49.432;8.680;2022-12-07T03:02:49;7.40;;;3.63;;
10416;SDS011;62605;49.432;8.680;2022-12-07T03:05:27;4.97;;;3.30;;
10416;SDS011;62605;49.432;8.680;2022-12-07T03:08:17;5.60;;;3.53;;
10416;SDS011;62605;49.432;8.680;2022-12-07T03:10:55;5.27;;;2.90;;
10416;SDS011;62605;49.432;8.680;2022-12-07T03:13:27;6.80;;;2.70;;
10416;SDS011;62605;49.432;8.680;2022-12-07T03:16:07;4.97;;;3.10;;
10416;SDS011;62605;49.432;8.680;2022-12-07T03:18:38;4.43;;;3.23;;
10416;SDS011;62605;49.432;8.680;2022-12-07T03:21:12;6.10;;;3.13;;
10416;SDS011;62605;49.432;8.680;2022-12-07T03:23:42;4.80;;;2.97;;
10416;SDS011;62605;49.432;8.680;2022-12-07T03:26:17;5.40;;;3.10;;
10416;SDS011;62605;49.432;8.680;2022-12-07T03:28:49;7.40;;;3.03;;
10416;SDS011;62605;49.432;8.680;2022-12-07T03:31:21;4.97;;;2.83;;
10416;SDS011;62605;49.432;8.680;2022-12-07T03:33:53;6.93;;;3.30;;
10416;SDS011;62605;49.432;8.680;2022-12-07T03:36:29;5.37;;;2.77;;
10416;SDS011;62605;49.432;8.680;2022-12-07T03:39:03;4.97;;;3.00;;
10416;SDS011;62605;49.432;8.680;2022-12-07T03:41:44;6.50;;;3.40;;
10416;SDS011;62605;49.432;8.680;2022-12-07T03:44:13;7.03;;;3.77;;
10416;SDS011;62605;49.432;8.680;2022-12-07T03:46:46;4.80;;;3.27;;
10416;SDS011;62605;49.432;8.680;2022-12-07T03:49:21;5.43;;;3.07;;
10416;SDS011;62605;49.432;8.680;2022-12-07T03:51:54;6.90;;;3.37;;
10416;SDS011;62605;49.432;8.680;2022-12-07T03:54:26;6.47;;;3.50;;
10416;SDS011;62605;49.432;8.680;2022-12-07T03:56:57;4.53;;;3.10;;
10416;SDS011;62605;49.432;8.680;2022-12-07T03:59:27;5.23;;;2.83;;
10416;SDS011;62605;49.432;8.680;2022-12-07T04:02:01;6.63;;;2.83;;
10416;SDS011;62605;49.432;8.680;2022-12-07T04:04:30;7.07;;;3.57;;
10416;SDS011;62605;49.432;8.680;2022-12-07T04:07:02;5.57;;;3.10;;
10416;SDS011;62605;49.432;8.680;2022-12-07T04:09:35;5.73;;;3.07;;
10416;SDS011;62605;49.432;8.680;2022-12-07T04:12:06;7.50;;;3.57;;
10416;SDS011;62605;49.432;8.680;2022-12-07T04:14:35;5.17;;;2.97;;
10416;SDS011;62605;49.432;8.680;2022-12-07T04:17:08;5.33;;;3.13;;
10416;SDS011;62605;49.432;8.680;2022-12-07T04:19:35;6.07;;;3.37;;
10416;SDS011;62605;49.432;8.680;2022-12-07T04:22:05;3.87;;;2.40;;
10416;SDS011;62605;49.432;8.680;2022-12-07T04:24:35;4.47;;;3.00;;
10416;SDS011;62605;49.432;8.680;2022-12-07T04:27:02;6.43;;;3.20;;
10416;SDS011;62605;49.432;8.680;2022-12-07T04:29:30;5.07;;;3.07;;
10416;SDS011;62605;49.432;8.680;2022-12-07T04:31:58;7.23;;;3.87;;
10416;SDS011;62605;49.432;8.680;2022-12-07T04:34:30;7.17;;;2.97;;
10416;SDS011;62605;49.432;8.680;2022-12-07T04:36:58;7.70;;;3.30;;
10416;SDS011;62605;49.432;8.680;2022-12-07T04:39:28;4.27;;;2.93;;
10416;SDS011;62605;49.432;8.680;2022-12-07T04:41:56;7.23;;;3.57;;
10416;SDS011;62605;49.432;8.680;2022-12-07T04:44:25;5.50;;;3.03;;
10416;SDS011;62605;49.432;8.680;2022-12-07T04:46:53;8.33;;;3.10;;
10416;SDS011;62605;49.432;8.680;2022-12-07T04:49:23;6.40;;;3.63;;
10416;SDS011;62605;49.432;8.680;2022-12-07T04:51:54;4.47;;;2.40;;
10416;SDS011;62605;49.432;8.680;2022-12-07T04:54:22;8.80;;;3.20;;
10416;SDS011;62605;49.432;8.680;2022-12-07T04:56:51;4.97;;;2.97;;
10416;SDS011;62605;49.432;8.680;2022-12-07T04:59:19;5.07;;;3.73;;
10416;SDS011;62605;49.432;8.680;2022-12-07T05:01:46;6.40;;;3.50;;
10416;SDS011;62605;49.432;8.680;2022-12-07T05:04:14;5.03;;;3.10;;
10416;SDS011;62605;49.432;8.680;2022-12-07T05:06:42;6.17;;;2.93;;
10416;SDS011;62605;49.432;8.680;2022-12-07T05:09:13;7.00;;;3.07;;
10416;SDS011;62605;49.432;8.680;2022-12-07T05:11:40;4.03;;;2.63;;
10416;SDS011;62605;49.432;8.680;2022-12-07T05:14:11;4.70;;;2.93;;
10416;SDS011;62605;49.432;8.680;2022-12-07T05:16:40;4.60;;;3.27;;
10416;SDS011;62605;49.432;8.680;2022-12-07T05:19:09;5.33;;;3.00;;
10416;SDS011;62605;49.432;8.680;2022-12-07T05:21:37;5.57;;;3.43;;
10416;SDS011;62605;49.432;8.680;2022-12-07T05:24:06;5.10;;;3.23;;
10416;SDS011;62605;49.432;8.680;2022-12-07T05:26:35;3.80;;;2.70;;
10416;SDS011;62605;49.432;8.680;2022-12-07T05:29:04;3.93;;;2.60;;
10416;SDS011;62605;49.432;8.680;2022-12-07T05:31:32;4.10;;;2.90;;
10416;SDS011;62605;49.432;8.680;2022-12-07T05:34:00;6.73;;;3.40;;
10416;SDS011;62605;49.432;8.680;2022-12-07T05:36:28;5.87;;;2.90;;
10416;SDS011;62605;49.432;8.680;2022-12-07T05:38:56;4.13;;;2.80;;
10416;SDS011;62605;49.432;8.680;2022-12-07T05:41:24;4.93;;;3.43;;
10416;SDS011;62605;49.432;8.680;2022-12-07T05:44:11;6.47;;;3.43;;
10416;SDS011;62605;49.432;8.680;2022-12-07T05:46:40;6.50;;;3.00;;
10416;SDS011;62605;49.432;8.680;2022-12-07T05:49:07;4.70;;;3.03;;
10416;SDS011;62605;49.432;8.680;2022-12-07T05:51:35;3.47;;;2.40;;
10416;SDS011;62605;49.432;8.680;2022-12-07T05:54:04;3.30;;;2.70;;
10416;SDS011;62605;49.432;8.680;2022-12-07T05:56:31;6.80;;;3.60;;
10416;SDS011;62605;49.432;8.680;2022-12-07T05:58:59;4.80;;;3.00;;
10416;SDS011;62605;49.432;8.680;2022-12-07T06:01:44;4.53;;;2.67;;
10416;SDS011;62605;49.432;8.680;2022-12-07T06:04:13;6.17;;;3.67;;
10416;SDS011;62605;49.432;8.680;2022-12-07T06:06:43;7.33;;;3.97;;
10416;SDS011;62605;49.432;8.680;2022-12-07T06:09:13;7.73;;;3.80;;
10416;SDS011;62605;49.432;8.680;2022-12-07T06:11:41;6.73;;;3.20;;
10416;SDS011;62605;49.432;8.680;2022-12-07T06:14:27;6.57;;;3.80;;
10416;SDS011;62605;49.432;8.680;2022-12-07T06:16:55;9.53;;;2.90;;
10416;SDS011;62605;49.432;8.680;2022-12-07T06:19:24;5.93;;;3.50;;
10416;SDS011;62605;49.432;8.680;2022-12-07T06:21:51;5.00;;;3.63;;
10416;SDS011;62605;49.432;8.680;2022-12-07T06:24:20;4.37;;;2.57;;
10416;SDS011;62605;49.432;8.680;2022-12-07T06:26:48;6.10;;;3.20;;
10416;SDS011;62605;49.432;8.680;2022-12-07T06:29:20;7.10;;;3.30;;
10416;SDS011;62605;49.432;8.680;2022-12-07T06:31:47;3.80;;;2.50;;
10416;SDS011;62605;49.432;8.680;2022-12-07T06:34:18;3.90;;;3.07;;
10416;SDS011;62605;49.432;8.680;2022-12-07T06:36:48;5.60;;;3.43;;
10416;SDS011;62605;49.432;8.680;2022-12-07T06:39:18;6.90;;;3.20;;
10416;SDS011;62605;49.432;8.680;2022-12-07T06:41:47;5.73;;;3.43;;
10416;SDS011;62605;49.432;8.680;2022-12-07T06:45:04;3.40;;;2.43;;
10416;SDS011;62605;49.432;8.680;2022-12-07T06:47:09;5.93;;;2.70;;
10416;SDS011;62605;49.432;8.680;2022-12-07T06:49:45;4.90;;;2.50;;
10416;SDS011;62605;49.432;8.680;2022-12-07T06:52:20;4.27;;;2.93;;
10416;SDS011;62605;49.432;8.680;2022-12-07T06:54:48;6.00;;;3.63;;
10416;SDS011;62605;49.432;8.680;2022-12-07T06:57:16;7.93;;;3.73;;
10416;SDS011;62605;49.432;8.680;2022-12-07T06:59:46;4.13;;;2.37;;
10416;SDS011;62605;49.432;8.680;2022-12-07T07:02:14;8.27;;;3.63;;
10416;SDS011;62605;49.432;8.680;2022-12-07T07:04:53;6.83;;;3.50;;
10416;SDS011;62605;49.432;8.680;2022-12-07T07:07:22;5.57;;;2.73;;
10416;SDS011;62605;49.432;8.680;2022-12-07T07:09:50;5.37;;;3.23;;
10416;SDS011;62605;49.432;8.680;2022-12-07T07:12:19;4.30;;;2.70;;
10416;SDS011;62605;49.432;8.680;2022-12-07T07:14:47;7.80;;;3.83;;
10416;SDS011;62605;49.432;8.680;2022-12-07T07:17:16;4.47;;;3.30;;
10416;SDS011;62605;49.432;8.680;2022-12-07T07:19:48;4.60;;;2.97;;
10416;SDS011;62605;49.432;8.680;2022-12-07T07:22:16;5.07;;;3.00;;
10416;SDS011;62605;49.432;8.680;2022-12-07T07:24:43;5.67;;;3.47;;
10416;SDS011;62605;49.432;8.680;2022-12-07T07:27:12;4.77;;;3.00;;
10416;SDS011;62605;49.432;8.680;2022-12-07T07:29:41;4.53;;;2.83;;
10416;SDS011;62605;49.432;8.680;2022-12-07T07:32:09;3.80;;;2.63;;
10416;SDS011;62605;49.432;8.680;2022-12-07T07:34:39;3.17;;;2.43;;
10416;SDS011;62605;49.432;8.680;2022-12-07T07:37:09;6.80;;;3.60;;
10416;SDS011;62605;49.432;8.680;2022-12-07T07:39:37;6.20;;;3.30;;
10416;SDS011;62605;49.432;8.680;2022-12-07T07:42:06;4.93;;;3.53;;
10416;SDS011;62605;49.432;8.680;2022-12-07T07:44:35;4.03;;;2.83;;
10416;SDS011;62605;49.432;8.680;2022-12-07T07:47:02;5.83;;;3.50;;
10416;SDS011;62605;49.432;8.680;2022-12-07T07:49:31;4.83;;;2.83;;
10416;SDS011;62605;49.432;8.680;2022-12-07T07:51:59;4.90;;;3.17;;
10416;SDS011;62605;49.432;8.680;2022-12-07T07:54:29;9.03;;;3.70;;
10416;SDS011;62605;49.432;8.680;2022-12-07T07:56:56;8.33;;;3.57;;
10416;SDS011;62605;49.432;8.680;2022-12-07T07:59:23;7.97;;;3.73;;
10416;SDS011;62605;49.432;8.680;2022-12-07T08:01:55;7.77;;;3.90;;
10416;SDS011;62605;49.432;8.680;2022-12-07T08:04:24;6.40;;;3.87;;
10416;SDS011;62605;49.432;8.680;2022-12-07T08:06:51;7.80;;;3.90;;
10416;SDS011;62605;49.432;8.680;2022-12-07T08:09:20;6.33;;;3.57;;
10416;SDS011;62605;49.432;8.680;2022-12-07T08:11:50;9.03;;;4.13;;
10416;SDS011;62605;49.432;8.680;2022-12-07T08:14:23;8.03;;;4.20;;
10416;SDS011;62605;49.432;8.680;2022-12-07T08:16:52;7.67;;;3.77;;
10416;SDS011;62605;49.432;8.680;2022-12-07T08:19:22;8.27;;;4.73;;
10416;SDS011;62605;49.432;8.680;2022-12-07T08:21:49;6.80;;;3.80;;
10416;SDS011;62605;49.432;8.680;2022-12-07T08:24:21;7.50;;;4.27;;
10416;SDS011;62605;49.432;8.680;2022-12-07T08:26:53;5.70;;;3.70;;
10416;SDS011;62605;49.432;8.680;2022-12-07T08:29:22;8.37;;;4.13;;
10416;SDS011;62605;49.432;8.680;2022-12-07T08:31:49;6.73;;;4.33;;
10416;SDS011;62605;49.432;8.680;2022-12-07T08:34:17;7.67;;;4.10;;
10416;SDS011;62605;49.432;8.680;2022-12-07T08:36:45;7.27;;;4.00;;
10416;SDS011;62605;49.432;8.680;2022-12-07T08:39:13;6.17;;;4.23;;
10416;SDS011;62605;49.432;8.680;2022-12-07T08:41:42;6.30;;;3.23;;
10416;SDS011;62605;49.432;8.680;2022-12-07T08:44:12;5.37;;;3.40;;
10416;SDS011;62605;49.432;8.680;2022-12-07T08:46:39;6.27;;;4.17;;
10416;SDS011;62605;49.432;8.680;2022-12-07T08:49:13;7.97;;;4.30;;
10416;SDS011;62605;49.432;8.680;2022-12-07T08:51:42;11.03;;;4.70;;
10416;SDS011;62605;49.432;8.680;2022-12-07T08:54:15;6.20;;;4.40;;
10416;SDS011;62605;49.432;8.680;2022-12-07T08:56:43;7.10;;;4.50;;
10416;SDS011;62605;49.432;8.680;2022-12-07T08:59:18;8.47;;;4.17;;
10416;SDS011;62605;49.432;8.680;2022-12-07T09:01:47;8.07;;;4.30;;
10416;SDS011;62605;49.432;8.680;2022-12-07T09:04:17;7.37;;;4.47;;
10416;SDS011;62605;49.432;8.680;2022-12-07T09:06:46;8.33;;;3.77;;
10416;SDS011;62605;49.432;8.680;2022-12-07T09:09:15;8.60;;;4.23;;
10416;SDS011;62605;49.432;8.680;2022-12-07T09:11:42;8.40;;;4.73;;
10416;SDS011;62605;49.432;8.680;2022-12-07T09:14:10;6.00;;;4.13;;
10416;SDS011;62605;49.432;8.680;2022-12-07T09:16:39;6.97;;;3.63;;
10416;SDS011;62605;49.432;8.680;2022-12-07T09:19:08;7.20;;;4.27;;
10416;SDS011;62605;49.432;8.680;2022-12-07T09:21:35;7.43;;;4.50;;
10416;SDS011;62605;49.432;8.680;2022-12-07T09:24:04;7.77;;;4.97;;
10416;SDS011;62605;49.432;8.680;2022-12-07T09:26:31;8.67;;;4.27;;
10416;SDS011;62605;49.432;8.680;2022-12-07T09:29:01;9.10;;;4.57;;
10416;SDS011;62605;49.432;8.680;2022-12-07T09:31:30;10.07;;;4.47;;
10416;SDS011;62605;49.432;8.680;2022-12-07T09:34:02;8.57;;;5.07;;
10416;SDS011;62605;49.432;8.680;2022-12-07T09:36:32;7.23;;;4.17;;
10416;SDS011;62605;49.432;8.680;2022-12-07T09:39:01;6.90;;;4.47;;
10416;SDS011;62605;49.432;8.680;2022-12-07T09:41:29;8.57;;;4.53;;
10416;SDS011;62605;49.432;8.680;2022-12-07T09:44:02;7.73;;;4.87;;
10416;SDS011;62605;49.432;8.680;2022-12-07T09:46:34;9.13;;;4.57;;
10416;SDS011;62605;49.432;8.680;2022-12-07T09:49:05;8.03;;;4.13;;
10416;SDS011;62605;49.432;8.680;2022-12-07T09:51:40;7.47;;;4.83;;
10416;SDS011;62605;49.432;8.680;2022-12-07T09:54:09;7.00;;;4.40;;
10416;SDS011;62605;49.432;8.680;2022-12-07T09:56:40;6.43;;;4.17;;
10416;SDS011;62605;49.432;8.680;2022-12-07T09:59:12;10.37;;;4.70;;
10416;SDS011;62605;49.432;8.680;2022-12-07T10:01:43;7.60;;;4.73;;
10416;SDS011;62605;49.432;8.680;2022-12-07T10:04:15;7.17;;;4.63;;
10416;SDS011;62605;49.432;8.680;2022-12-07T10:06:46;10.03;;;5.13;;
10416;SDS011;62605;49.432;8.680;2022-12-07T10:09:17;9.10;;;4.70;;
10416;SDS011;62605;49.432;8.680;2022-12-07T10:11:59;8.77;;;4.30;;
10416;SDS011;62605;49.432;8.680;2022-12-07T10:14:32;6.83;;;4.63;;
10416;SDS011;62605;49.432;8.680;2022-12-07T10:17:01;7.93;;;4.93;;
10416;SDS011;62605;49.432;8.680;2022-12-07T10:19:30;7.90;;;4.67;;
10416;SDS011;62605;49.432;8.680;2022-12-07T10:22:03;7.47;;;4.33;;
10416;SDS011;62605;49.432;8.680;2022-12-07T10:24:32;12.80;;;5.10;;
10416;SDS011;62605;49.432;8.680;2022-12-07T10:27:01;10.33;;;4.70;;
10416;SDS011;62605;49.432;8.680;2022-12-07T10:29:29;8.80;;;4.67;;
10416;SDS011;62605;49.432;8.680;2022-12-07T10:32:00;8.93;;;4.93;;
10416;SDS011;62605;49.432;8.680;2022-12-07T10:34:31;8.33;;;5.10;;
10416;SDS011;62605;49.432;8.680;2022-12-07T10:37:14;8.47;;;4.77;;
10416;SDS011;62605;49.432;8.680;2022-12-07T10:39:43;8.90;;;4.50;;
10416;SDS011;62605;49.432;8.680;2022-12-07T10:42:15;9.30;;;4.87;;
10416;SDS011;62605;49.432;8.680;2022-12-07T10:44:45;10.30;;;4.80;;
10416;SDS011;62605;49.432;8.680;2022-12-07T10:47:19;9.30;;;4.33;;
10416;SDS011;62605;49.432;8.680;2022-12-07T10:55:57;9.63;;;5.80;;
10416;SDS011;62605;49.432;8.680;2022-12-07T10:58:42;7.17;;;4.50;;
10416;SDS011;62605;49.432;8.680;2022-12-07T11:01:23;9.00;;;4.67;;
10416;SDS011;62605;49.432;8.680;2022-12-07T11:06:48;11.63;;;4.87;;
10416;SDS011;62605;49.432;8.680;2022-12-07T11:09:29;7.70;;;4.00;;
10416;SDS011;62605;49.432;8.680;2022-12-07T11:12:11;10.17;;;4.63;;
10416;SDS011;62605;49.432;8.680;2022-12-07T11:14:50;8.50;;;4.43;;
10416;SDS011;62605;49.432;8.680;2022-12-07T11:17:26;6.80;;;4.40;;
10416;SDS011;62605;49.432;8.680;2022-12-07T11:22:49;8.73;;;5.23;;
10416;SDS011;62605;49.432;8.680;2022-12-07T11:25:29;9.67;;;4.63;;
10416;SDS011;62605;49.432;8.680;2022-12-07T11:28:08;7.23;;;4.50;;
10416;SDS011;62605;49.432;8.680;2022-12-07T11:30:47;6.73;;;4.27;;
10416;SDS011;62605;49.432;8.680;2022-12-07T11:33:25;8.73;;;4.73;;
10416;SDS011;62605;49.432;8.680;2022-12-07T11:36:02;8.30;;;4.63;;
10416;SDS011;62605;49.432;8.680;2022-12-07T11:38:44;7.50;;;4.03;;
10416;SDS011;62605;49.432;8.680;2022-12-07T11:41:17;8.60;;;4.40;;
10416;SDS011;62605;49.432;8.680;2022-12-07T11:43:54;7.40;;;4.70;;
10416;SDS011;62605;49.432;8.680;2022-12-07T11:46:27;6.93;;;4.57;;
10416;SDS011;62605;49.432;8.680;2022-12-07T11:49:02;8.27;;;4.40;;
10416;SDS011;62605;49.432;8.680;2022-12-07T11:51:38;8.10;;;5.00;;
10416;SDS011;62605;49.432;8.680;2022-12-07T11:54:16;12.30;;;5.17;;
10416;SDS011;62605;49.432;8.680;2022-12-07T11:56:48;7.57;;;4.97;;
10416;SDS011;62605;49.432;8.680;2022-12-07T11:59:20;7.93;;;4.57;;
10416;SDS011;62605;49.432;8.680;2022-12-07T12:01:56;10.67;;;5.27;;
10416;SDS011;62605;49.432;8.680;2022-12-07T12:04:32;11.73;;;5.10;;
10416;SDS011;62605;49.432;8.680;2022-12-07T12:07:10;8.83;;;4.83;;
10416;SDS011;62605;49.432;8.680;2022-12-07T12:09:45;7.60;;;4.40;;
10416;SDS011;62605;49.432;8.680;2022-12-07T12:12:21;8.33;;;4.53;;
10416;SDS011;62605;49.432;8.680;2022-12-07T12:18:20;7.37;;;4.57;;
10416;SDS011;62605;49.432;8.680;2022-12-07T12:21:12;10.73;;;5.27;;
10416;SDS011;62605;49.432;8.680;2022-12-07T12:23:44;7.40;;;4.93;;
10416;SDS011;62605;49.432;8.680;2022-12-07T12:26:16;8.73;;;5.20;;
10416;SDS011;62605;49.432;8.680;2022-12-07T12:28:52;11.30;;;5.37;;
10416;SDS011;62605;49.432;8.680;2022-12-07T12:31:32;8.80;;;5.20;;
10416;SDS011;62605;49.432;8.680;2022-12-07T12:36:59;8.63;;;5.03;;
10416;SDS011;62605;49.432;8.680;2022-12-07T12:39:28;9.93;;;4.87;;
10416;SDS011;62605;49.432;8.680;2022-12-07T12:41:59;9.13;;;5.13;;
10416;SDS011;62605;49.432;8.680;2022-12-07T12:47:41;11.10;;;5.83;;
10416;SDS011;62605;49.432;8.680;2022-12-07T12:50:20;11.57;;;5.03;;
10416;SDS011;62605;49.432;8.680;2022-12-07T12:52:57;10.60;;;5.33;;
10416;SDS011;62605;49.432;8.680;2022-12-07T12:58:30;7.47;;;4.83;;
10416;SDS011;62605;49.432;8.680;2022-12-07T13:06:54;8.23;;;5.00;;
10416;SDS011;62605;49.432;8.680;2022-12-07T13:09:33;7.90;;;4.23;;
10416;SDS011;62605;49.432;8.680;2022-12-07T13:12:02;7.13;;;5.13;;
10416;SDS011;62605;49.432;8.680;2022-12-07T13:14:40;8.40;;;4.63;;
10416;SDS011;62605;49.432;8.680;2022-12-07T13:20:50;6.53;;;3.10;;
10416;SDS011;62605;49.432;8.680;2022-12-07T13:23:24;4.37;;;3.00;;
10416;SDS011;62605;49.432;8.680;2022-12-07T13:25:59;7.73;;;2.57;;
10416;SDS011;62605;49.432;8.680;2022-12-07T13:28:37;3.43;;;2.50;;
10416;SDS011;62605;49.432;8.680;2022-12-07T13:31:14;2.90;;;2.07;;
10416;SDS011;62605;49.432;8.680;2022-12-07T13:33:52;2.87;;;2.17;;
10416;SDS011;62605;49.432;8.680;2022-12-07T13:36:23;3.43;;;2.17;;
10416;SDS011;62605;49.432;8.680;2022-12-07T13:38:53;2.93;;;2.13;;
10416;SDS011;62605;49.432;8.680;2022-12-07T13:41:23;3.23;;;2.10;;
10416;SDS011;62605;49.432;8.680;2022-12-07T13:43:58;2.80;;;2.33;;
10416;SDS011;62605;49.432;8.680;2022-12-07T13:46:32;2.60;;;1.97;;
10416;SDS011;62605;49.432;8.680;2022-12-07T13:49:15;3.13;;;1.90;;
10416;SDS011;62605;49.432;8.680;2022-12-07T13:51:47;4.73;;;2.47;;
10416;SDS011;62605;49.432;8.680;2022-12-07T13:54:16;4.70;;;2.67;;
10416;SDS011;62605;49.432;8.680;2022-12-07T13:56:43;12.07;;;4.87;;
10416;SDS011;62605;49.432;8.680;2022-12-07T13:59:16;8.20;;;3.90;;
10416;SDS011;62605;49.432;8.680;2022-12-07T14:01:45;3.80;;;2.13;;
10416;SDS011;62605;49.432;8.680;2022-12-07T14:04:31;3.43;;;2.30;;
10416;SDS011;62605;49.432;8.680;2022-12-07T14:07:01;4.57;;;2.33;;
10416;SDS011;62605;49.432;8.680;2022-12-07T14:09:57;2.90;;;1.93;;
10416;SDS011;62605;49.432;8.680;2022-12-07T14:12:26;3.60;;;2.20;;
10416;SDS011;62605;49.432;8.680;2022-12-07T14:15:15;4.87;;;2.20;;
10416;SDS011;62605;49.432;8.680;2022-12-07T14:17:56;4.37;;;2.17;;
10416;SDS011;62605;49.432;8.680;2022-12-07T14:20:30;2.97;;;2.13;;
10416;SDS011;62605;49.432;8.680;2022-12-07T14:23:01;3.60;;;2.20;;
10416;SDS011;62605;49.432;8.680;2022-12-07T14:25:44;3.10;;;1.57;;
10416;SDS011;62605;49.432;8.680;2022-12-07T14:28:25;2.77;;;1.77;;
10416;SDS011;62605;49.432;8.680;2022-12-07T14:30:53;5.63;;;1.77;;
10416;SDS011;62605;49.432;8.680;2022-12-07T14:33:24;3.17;;;1.93;;
10416;SDS011;62605;49.432;8.680;2022-12-07T14:35:53;4.17;;;2.80;;
10416;SDS011;62605;49.432;8.680;2022-12-07T14:38:24;8.10;;;3.73;;
10416;SDS011;62605;49.432;8.680;2022-12-07T14:40:52;6.27;;;3.27;;
10416;SDS011;62605;49.432;8.680;2022-12-07T14:43:42;6.97;;;3.17;;
10416;SDS011;62605;49.432;8.680;2022-12-07T14:46:10;4.07;;;3.00;;
10416;SDS011;62605;49.432;8.680;2022-12-07T14:48:38;7.50;;;2.97;;
10416;SDS011;62605;49.432;8.680;2022-12-07T14:51:07;6.27;;;3.03;;
10416;SDS011;62605;49.432;8.680;2022-12-07T14:53:39;6.50;;;3.17;;
10416;SDS011;62605;49.432;8.680;2022-12-07T14:56:09;6.13;;;3.70;;
10416;SDS011;62605;49.432;8.680;2022-12-07T14:58:37;6.77;;;3.10;;
10416;SDS011;62605;49.432;8.680;2022-12-07T15:01:08;6.70;;;3.40;;
10416;SDS011;62605;49.432;8.680;2022-12-07T15:03:36;5.17;;;3.23;;
10416;SDS011;62605;49.432;8.680;2022-12-07T15:06:06;4.80;;;3.13;;
10416;SDS011;62605;49.432;8.680;2022-12-07T15:08:33;5.73;;;3.37;;
10416;SDS011;62605;49.432;8.680;2022-12-07T15:11:03;6.67;;;3.67;;
10416;SDS011;62605;49.432;8.680;2022-12-07T15:13:30;11.00;;;3.83;;
10416;SDS011;62605;49.432;8.680;2022-12-07T15:16:17;6.93;;;3.60;;
10416;SDS011;62605;49.432;8.680;2022-12-07T15:18:46;5.63;;;3.23;;
10416;SDS011;62605;49.432;8.680;2022-12-07T15:21:15;7.53;;;4.17;;
10416;SDS011;62605;49.432;8.680;2022-12-07T15:23:42;10.37;;;3.93;;
10416;SDS011;62605;49.432;8.680;2022-12-07T15:26:13;6.53;;;3.50;;
10416;SDS011;62605;49.432;8.680;2022-12-07T15:28:43;8.27;;;3.43;;
10416;SDS011;62605;49.432;8.680;2022-12-07T15:31:12;4.50;;;2.67;;
10416;SDS011;62605;49.432;8.680;2022-12-07T15:33:40;7.13;;;2.57;;
10416;SDS011;62605;49.432;8.680;2022-12-07T15:36:08;5.80;;;2.30;;
10416;SDS011;62605;49.432;8.680;2022-12-07T15:38:46;3.43;;;2.60;;
10416;SDS011;62605;49.432;8.680;2022-12-07T15:41:15;4.93;;;3.00;;
10416;SDS011;62605;49.432;8.680;2022-12-07T15:43:43;4.80;;;2.90;;
10416;SDS011;62605;49.432;8.680;2022-12-07T15:46:29;4.30;;;2.63;;
10416;SDS011;62605;49.432;8.680;2022-12-07T15:48:58;4.87;;;2.83;;
10416;SDS011;62605;49.432;8.680;2022-12-07T15:51:26;4.23;;;2.70;;
10416;SDS011;62605;49.432;8.680;2022-12-07T15:53:55;3.77;;;2.57;;